createdAt,value
2019-05-05T00:00:04.830Z,3.00
2019-05-05T00:01:05.186Z,3.00
2019-05-05T00:02:05.070Z,3.00
2019-05-05T00:03:04.553Z,3.00
2019-05-05T00:04:04.605Z,3.00
2019-05-05T00:05:04.989Z,3.00
2019-05-05T00:06:05.258Z,3.00
2019-05-05T00:07:05.173Z,3.00
2019-05-05T00:08:04.949Z,3.00
2019-05-05T00:09:05.446Z,3.00
2019-05-05T00:10:05.427Z,3.00
2019-05-05T00:11:05.026Z,3.00
2019-05-05T00:12:05.339Z,3.00
2019-05-05T00:13:05.125Z,3.00
2019-05-05T00:14:04.757Z,3.00
2019-05-05T00:15:05.327Z,3.00
2019-05-05T00:16:05.225Z,3.00
2019-05-05T00:17:05.303Z,3.00
2019-05-05T00:18:05.389Z,3.00
2019-05-05T00:19:05.039Z,3.00
2019-05-05T00:20:05.216Z,3.00
2019-05-05T00:21:04.577Z,3.00
2019-05-05T00:22:04.632Z,3.00
2019-05-05T00:23:05.296Z,3.00
2019-05-05T00:24:05.198Z,3.00
2019-05-05T00:25:05.328Z,3.00
2019-05-05T00:26:04.629Z,3.00
2019-05-05T00:27:04.619Z,3.00
2019-05-05T00:28:05.184Z,3.00
2019-05-05T00:29:04.522Z,3.00
2019-05-05T00:30:05.437Z,3.00
2019-05-05T00:31:05.065Z,3.00
2019-05-05T00:32:06.308Z,3.00
2019-05-05T00:33:05.508Z,3.00
2019-05-05T00:34:04.971Z,3.00
2019-05-05T00:35:04.801Z,3.00
2019-05-05T00:36:07.091Z,3.00
2019-05-05T00:37:04.805Z,3.00
2019-05-05T00:38:05.020Z,3.00
2019-05-05T00:39:04.865Z,3.00
2019-05-05T00:40:05.027Z,3.00
2019-05-05T00:41:05.408Z,3.10
2019-05-05T00:42:04.750Z,3.10
2019-05-05T00:43:05.298Z,3.10
2019-05-05T00:44:04.814Z,3.10
2019-05-05T00:45:05.379Z,3.10
2019-05-05T00:46:04.685Z,3.10
2019-05-05T00:47:05.252Z,3.10
2019-05-05T00:48:05.086Z,3.10
2019-05-05T00:49:05.375Z,3.10
2019-05-05T00:50:05.269Z,3.10
2019-05-05T00:51:05.034Z,3.20
2019-05-05T00:52:05.470Z,3.20
2019-05-05T00:53:05.292Z,3.20
2019-05-05T00:54:04.463Z,3.20
2019-05-05T00:55:04.607Z,3.20
2019-05-05T00:56:05.156Z,3.20
2019-05-05T00:57:04.488Z,3.20
2019-05-05T00:58:05.210Z,3.20
2019-05-05T00:59:05.017Z,3.30
2019-05-05T01:00:05.179Z,3.30
2019-05-05T01:01:05.277Z,3.30
2019-05-05T01:02:04.673Z,3.30
2019-05-05T01:03:04.806Z,3.30
2019-05-05T01:04:05.265Z,3.30
2019-05-05T01:05:04.476Z,3.30
2019-05-05T01:06:04.588Z,3.30
2019-05-05T01:07:05.008Z,3.30
2019-05-05T01:08:05.242Z,3.30
2019-05-05T01:09:04.945Z,3.40
2019-05-05T01:10:05.037Z,3.40
2019-05-05T01:11:05.263Z,3.40
2019-05-05T01:12:04.495Z,3.40
2019-05-05T01:13:04.787Z,3.40
2019-05-05T01:14:05.161Z,3.40
2019-05-05T01:15:05.053Z,3.40
2019-05-05T01:16:04.972Z,3.40
2019-05-05T01:17:05.231Z,3.40
2019-05-05T01:18:04.996Z,3.30
2019-05-05T01:19:04.592Z,3.30
2019-05-05T01:20:06.878Z,3.30
2019-05-05T01:21:04.720Z,3.30
2019-05-05T01:22:05.035Z,3.30
2019-05-05T01:23:10.097Z,3.30
2019-05-05T01:24:05.177Z,3.30
2019-05-05T01:25:05.440Z,3.30
2019-05-05T01:26:05.013Z,3.30
2019-05-05T01:27:04.923Z,3.30
2019-05-05T01:28:05.142Z,3.30
2019-05-05T01:29:05.274Z,3.30
2019-05-05T01:30:05.207Z,3.30
2019-05-05T01:31:05.576Z,3.30
2019-05-05T01:32:05.009Z,3.30
2019-05-05T01:33:05.446Z,3.30
2019-05-05T01:34:05.205Z,3.30
2019-05-05T01:35:05.355Z,3.30
2019-05-05T01:36:05.045Z,3.30
2019-05-05T01:37:04.931Z,3.30
2019-05-05T01:38:04.918Z,3.30
2019-05-05T01:39:04.905Z,3.30
2019-05-05T01:40:05.081Z,3.30
2019-05-05T01:41:04.326Z,3.30
2019-05-05T01:42:04.955Z,3.30
2019-05-05T01:43:05.452Z,3.30
2019-05-05T01:44:04.912Z,3.30
2019-05-05T01:45:04.700Z,3.30
2019-05-05T01:46:05.179Z,3.30
2019-05-05T01:47:05.374Z,3.30
2019-05-05T01:48:05.121Z,3.30
2019-05-05T01:49:05.417Z,3.30
2019-05-05T01:50:16.992Z,3.30
2019-05-05T01:51:05.155Z,3.30
2019-05-05T01:52:05.096Z,3.30
2019-05-05T01:53:05.083Z,3.30
2019-05-05T01:54:05.234Z,3.30
2019-05-05T01:55:05.340Z,3.30
2019-05-05T01:56:04.919Z,3.30
2019-05-05T01:57:05.518Z,3.30
2019-05-05T01:58:04.960Z,3.30
2019-05-05T01:59:05.114Z,3.30
2019-05-05T02:00:05.051Z,3.30
2019-05-05T02:01:05.151Z,3.30
2019-05-05T02:02:04.367Z,3.30
2019-05-05T02:03:04.672Z,3.30
2019-05-05T02:04:05.471Z,3.30
2019-05-05T02:05:04.669Z,3.30
2019-05-05T02:06:05.198Z,3.30
2019-05-05T02:07:05.397Z,3.30
2019-05-05T02:08:04.872Z,3.30
2019-05-05T02:09:05.326Z,3.30
2019-05-05T02:10:05.982Z,3.30
2019-05-05T02:11:05.261Z,3.30
2019-05-05T02:12:05.370Z,3.30
2019-05-05T02:13:04.715Z,3.30
2019-05-05T02:14:05.057Z,3.30
2019-05-05T02:15:05.107Z,3.30
2019-05-05T02:16:04.802Z,3.30
2019-05-05T02:17:05.114Z,3.40
2019-05-05T02:18:04.675Z,3.40
2019-05-05T02:19:05.187Z,3.40
2019-05-05T02:20:05.232Z,3.40
2019-05-05T02:21:05.246Z,3.40
2019-05-05T02:22:10.114Z,3.40
2019-05-05T02:23:04.741Z,3.40
2019-05-05T02:24:05.271Z,3.40
2019-05-05T02:25:05.162Z,3.40
2019-05-05T02:26:04.668Z,3.40
2019-05-05T02:27:05.218Z,3.40
2019-05-05T02:28:04.766Z,3.40
2019-05-05T02:29:04.947Z,3.40
2019-05-05T02:30:06.114Z,3.40
2019-05-05T02:31:05.643Z,3.40
2019-05-05T02:32:06.176Z,3.40
2019-05-05T02:33:06.232Z,3.50
2019-05-05T02:34:05.502Z,3.50
2019-05-05T02:35:06.354Z,3.50
2019-05-05T02:36:05.850Z,3.50
2019-05-05T02:37:05.396Z,3.50
2019-05-05T02:38:06.435Z,3.50
2019-05-05T02:39:05.348Z,3.50
2019-05-05T02:40:07.205Z,3.50
2019-05-05T02:41:05.166Z,3.50
2019-05-05T02:42:05.840Z,3.50
2019-05-05T02:43:05.457Z,3.50
2019-05-05T02:44:05.026Z,3.50
2019-05-05T02:45:05.595Z,3.50
2019-05-05T02:46:05.457Z,3.50
2019-05-05T02:47:04.825Z,3.50
2019-05-05T02:48:05.846Z,3.50
2019-05-05T02:49:05.469Z,3.50
2019-05-05T02:50:05.175Z,3.50
2019-05-05T02:51:06.798Z,3.50
2019-05-05T02:52:05.165Z,3.50
2019-05-05T02:53:05.010Z,3.50
2019-05-05T02:54:04.467Z,3.50
2019-05-05T02:55:04.673Z,3.50
2019-05-05T02:56:10.093Z,3.50
2019-05-05T02:57:05.286Z,3.50
2019-05-05T02:58:05.034Z,3.50
2019-05-05T02:59:04.821Z,3.50
2019-05-05T03:00:05.116Z,3.50
2019-05-05T03:01:04.931Z,3.50
2019-05-05T03:02:05.001Z,3.50
2019-05-05T03:03:05.139Z,3.50
2019-05-05T03:04:05.236Z,3.50
2019-05-05T03:05:04.903Z,3.60
2019-05-05T03:06:05.110Z,3.50
2019-05-05T03:07:04.817Z,3.50
2019-05-05T03:08:05.193Z,3.50
2019-05-05T03:09:04.477Z,3.50
2019-05-05T03:10:04.917Z,3.50
2019-05-05T03:11:05.154Z,3.50
2019-05-05T03:12:04.906Z,3.50
2019-05-05T03:13:04.938Z,3.50
2019-05-05T03:14:04.375Z,3.50
2019-05-05T03:15:05.019Z,3.50
2019-05-05T03:16:04.540Z,3.50
2019-05-05T03:17:04.814Z,3.50
2019-05-05T03:18:04.756Z,3.50
2019-05-05T03:19:04.801Z,3.50
2019-05-05T03:20:05.071Z,3.60
2019-05-05T03:21:06.757Z,3.60
2019-05-05T03:22:05.040Z,3.60
2019-05-05T03:23:04.367Z,3.50
2019-05-05T03:24:04.907Z,3.60
2019-05-05T03:25:05.112Z,3.60
2019-05-05T03:26:04.764Z,3.60
2019-05-05T03:27:05.058Z,3.50
2019-05-05T03:28:04.455Z,3.60
2019-05-05T03:29:04.982Z,3.60
2019-05-05T03:30:05.282Z,3.60
2019-05-05T03:31:05.264Z,3.60
2019-05-05T03:32:05.461Z,3.60
2019-05-05T03:33:05.361Z,3.60
2019-05-05T03:34:05.821Z,3.60
2019-05-05T03:35:05.119Z,3.60
2019-05-05T03:36:04.645Z,3.60
2019-05-05T03:37:04.869Z,3.60
2019-05-05T03:38:04.371Z,3.60
2019-05-05T03:39:05.128Z,3.60
2019-05-05T03:40:04.927Z,3.60
2019-05-05T03:41:05.115Z,3.60
2019-05-05T03:42:05.234Z,3.60
2019-05-05T03:43:04.716Z,3.60
2019-05-05T03:44:04.984Z,3.60
2019-05-05T03:45:04.354Z,3.60
2019-05-05T03:46:04.683Z,3.60
2019-05-05T03:47:04.333Z,3.60
2019-05-05T03:48:04.654Z,3.60
2019-05-05T03:49:04.847Z,3.60
2019-05-05T03:50:04.765Z,3.60
2019-05-05T03:51:15.294Z,3.60
2019-05-05T03:52:04.897Z,3.60
2019-05-05T03:53:04.980Z,3.60
2019-05-05T03:54:05.066Z,3.60
2019-05-05T03:55:04.898Z,3.60
2019-05-05T03:56:04.402Z,3.60
2019-05-05T03:57:04.318Z,3.60
2019-05-05T03:58:04.973Z,3.60
2019-05-05T03:59:04.835Z,3.60
2019-05-05T04:00:04.930Z,3.60
2019-05-05T04:01:04.364Z,3.60
2019-05-05T04:02:05.092Z,3.60
2019-05-05T04:03:04.388Z,3.60
2019-05-05T04:04:04.700Z,3.60
2019-05-05T04:05:04.773Z,3.60
2019-05-05T04:06:04.766Z,3.60
2019-05-05T04:07:04.944Z,3.60
2019-05-05T04:08:05.010Z,3.60
2019-05-05T04:09:05.101Z,3.60
2019-05-05T04:10:04.499Z,3.60
2019-05-05T04:11:04.642Z,3.60
2019-05-05T04:12:05.046Z,3.60
2019-05-05T04:13:04.796Z,3.60
2019-05-05T04:14:05.018Z,3.60
2019-05-05T04:15:04.677Z,3.60
2019-05-05T04:16:05.074Z,3.60
2019-05-05T04:17:05.245Z,3.60
2019-05-05T04:18:04.688Z,3.60
2019-05-05T04:19:04.645Z,3.60
2019-05-05T04:20:04.984Z,3.60
2019-05-05T04:21:04.882Z,3.60
2019-05-05T04:22:05.172Z,3.60
2019-05-05T04:23:04.376Z,3.60
2019-05-05T04:24:04.578Z,3.60
2019-05-05T04:25:05.454Z,3.60
2019-05-05T04:26:05.007Z,3.60
2019-05-05T04:27:05.296Z,3.60
2019-05-05T04:28:04.936Z,3.60
2019-05-05T04:29:05.396Z,3.60
2019-05-05T04:30:04.852Z,3.60
2019-05-05T04:31:05.022Z,3.60
2019-05-05T04:32:05.210Z,3.70
2019-05-05T04:33:04.258Z,3.70
2019-05-05T04:34:05.133Z,3.70
2019-05-05T04:35:04.479Z,3.70
2019-05-05T04:36:05.064Z,3.70
2019-05-05T04:37:06.031Z,3.70
2019-05-05T04:38:04.906Z,3.70
2019-05-05T04:39:04.247Z,3.70
2019-05-05T04:40:04.709Z,3.70
2019-05-05T04:41:05.233Z,3.70
2019-05-05T04:42:04.847Z,3.70
2019-05-05T04:43:04.803Z,3.70
2019-05-05T04:44:05.225Z,3.70
2019-05-05T04:45:04.847Z,3.70
2019-05-05T04:46:05.853Z,3.70
2019-05-05T04:47:04.610Z,3.70
2019-05-05T04:48:04.418Z,3.70
2019-05-05T04:49:04.874Z,3.80
2019-05-05T04:50:04.967Z,3.80
2019-05-05T04:51:04.794Z,3.80
2019-05-05T04:52:04.527Z,3.80
2019-05-05T04:53:05.504Z,3.80
2019-05-05T04:54:04.590Z,3.80
2019-05-05T04:55:04.494Z,3.80
2019-05-05T04:56:04.521Z,3.80
2019-05-05T04:57:05.127Z,3.80
2019-05-05T04:58:04.657Z,3.80
2019-05-05T04:59:04.705Z,3.80
2019-05-05T05:00:04.685Z,3.80
2019-05-05T05:01:05.030Z,3.80
2019-05-05T05:02:04.303Z,3.80
2019-05-05T05:03:05.216Z,3.80
2019-05-05T05:04:04.272Z,3.80
2019-05-05T05:05:04.218Z,3.80
2019-05-05T05:06:04.608Z,3.80
2019-05-05T05:07:04.687Z,3.80
2019-05-05T05:08:04.708Z,3.80
2019-05-05T05:09:05.976Z,3.80
2019-05-05T05:10:04.597Z,3.80
2019-05-05T05:11:04.675Z,3.80
2019-05-05T05:12:04.748Z,3.80
2019-05-05T05:13:05.086Z,3.80
2019-05-05T05:14:04.381Z,3.80
2019-05-05T05:15:04.825Z,3.80
2019-05-05T05:16:04.722Z,3.80
2019-05-05T05:17:04.840Z,3.90
2019-05-05T05:18:04.819Z,3.90
2019-05-05T05:19:04.887Z,3.90
2019-05-05T05:20:04.127Z,3.90
2019-05-05T05:21:04.133Z,3.90
2019-05-05T05:22:04.895Z,3.90
2019-05-05T05:23:04.757Z,3.90
2019-05-05T05:24:05.026Z,4.00
2019-05-05T05:25:04.504Z,4.00
2019-05-05T05:26:05.140Z,4.00
2019-05-05T05:27:05.153Z,4.00
2019-05-05T05:28:04.942Z,4.00
2019-05-05T05:29:04.651Z,4.00
2019-05-05T05:30:04.718Z,4.00
2019-05-05T05:31:04.620Z,4.00
2019-05-05T05:32:04.470Z,4.00
2019-05-05T05:33:04.612Z,4.00
2019-05-05T05:34:05.078Z,4.00
2019-05-05T05:35:04.174Z,4.00
2019-05-05T05:36:04.384Z,4.00
2019-05-05T05:37:05.059Z,4.00
2019-05-05T05:38:04.729Z,4.00
2019-05-05T05:39:04.620Z,4.00
2019-05-05T05:40:06.876Z,4.10
2019-05-05T05:41:05.065Z,4.10
2019-05-05T05:42:04.589Z,4.10
2019-05-05T05:43:04.804Z,4.10
2019-05-05T05:44:04.541Z,4.10
2019-05-05T05:45:04.583Z,4.10
2019-05-05T05:46:04.736Z,4.10
2019-05-05T05:47:04.748Z,4.10
2019-05-05T05:48:04.789Z,4.20
2019-05-05T05:49:04.545Z,4.20
2019-05-05T05:50:04.326Z,4.20
2019-05-05T05:51:04.336Z,4.20
2019-05-05T05:52:13.175Z,4.20
2019-05-05T05:53:04.830Z,4.20
2019-05-05T05:54:04.573Z,4.30
2019-05-05T05:55:05.122Z,4.30
2019-05-05T05:56:05.090Z,4.30
2019-05-05T05:57:05.119Z,4.40
2019-05-05T05:58:04.874Z,4.40
2019-05-05T05:59:04.677Z,4.40
2019-05-05T06:00:04.845Z,4.50
2019-05-05T06:01:04.827Z,4.50
2019-05-05T06:02:09.642Z,4.50
2019-05-05T06:03:04.581Z,4.50
2019-05-05T06:04:04.732Z,4.60
2019-05-05T06:05:04.372Z,4.60
2019-05-05T06:06:04.931Z,4.60
2019-05-05T06:07:04.857Z,4.60
2019-05-05T06:08:04.837Z,4.60
2019-05-05T06:09:04.758Z,4.70
2019-05-05T06:10:04.793Z,4.70
2019-05-05T06:11:06.765Z,4.70
2019-05-05T06:12:04.408Z,4.70
2019-05-05T06:13:04.573Z,4.70
2019-05-05T06:14:04.368Z,4.70
2019-05-05T06:15:04.875Z,4.70
2019-05-05T06:16:04.501Z,4.70
2019-05-05T06:17:04.870Z,4.70
2019-05-05T06:18:04.828Z,4.80
2019-05-05T06:19:04.652Z,4.80
2019-05-05T06:20:04.601Z,4.80
2019-05-05T06:21:09.843Z,4.80
2019-05-05T06:22:05.113Z,4.80
2019-05-05T06:23:04.668Z,4.80
2019-05-05T06:24:04.671Z,4.90
2019-05-05T06:25:06.434Z,4.90
2019-05-05T06:26:06.633Z,4.90
2019-05-05T06:27:04.376Z,5.00
2019-05-05T06:28:04.501Z,5.00
2019-05-05T06:29:04.916Z,5.00
2019-05-05T06:30:04.828Z,5.10
2019-05-05T06:31:05.064Z,5.10
2019-05-05T06:32:04.863Z,5.20
2019-05-05T06:33:04.947Z,5.20
2019-05-05T06:34:04.575Z,5.30
2019-05-05T06:35:05.149Z,5.30
2019-05-05T06:36:04.125Z,5.30
2019-05-05T06:37:04.593Z,5.40
2019-05-05T06:38:05.047Z,5.40
2019-05-05T06:39:04.545Z,5.40
2019-05-05T06:40:04.237Z,5.40
2019-05-05T06:41:04.420Z,5.40
2019-05-05T06:42:07.567Z,5.40
2019-05-05T06:43:04.837Z,5.40
2019-05-05T06:44:04.937Z,5.40
2019-05-05T06:45:04.910Z,5.40
2019-05-05T06:46:04.553Z,5.40
2019-05-05T06:47:04.805Z,5.40
2019-05-05T06:48:04.666Z,5.40
2019-05-05T06:49:05.138Z,5.40
2019-05-05T06:50:04.430Z,5.40
2019-05-05T06:51:04.631Z,5.40
2019-05-05T06:52:04.509Z,5.40
2019-05-05T06:53:04.752Z,5.40
2019-05-05T06:54:04.782Z,5.40
2019-05-05T06:55:09.417Z,5.40
2019-05-05T06:56:04.888Z,5.50
2019-05-05T06:57:04.921Z,5.50
2019-05-05T06:58:04.647Z,5.50
2019-05-05T06:59:04.548Z,5.60
2019-05-05T07:00:04.547Z,5.60
2019-05-05T07:01:04.505Z,5.70
2019-05-05T07:02:04.562Z,5.70
2019-05-05T07:03:07.628Z,5.80
2019-05-05T07:04:04.445Z,5.80
2019-05-05T07:05:04.318Z,5.90
2019-05-05T07:06:04.601Z,5.90
2019-05-05T07:07:05.079Z,5.90
2019-05-05T07:08:04.481Z,6.00
2019-05-05T07:09:05.435Z,6.00
2019-05-05T07:10:04.256Z,6.10
2019-05-05T07:11:04.481Z,6.10
2019-05-05T07:12:04.703Z,6.10
2019-05-05T07:13:07.443Z,6.10
2019-05-05T07:14:04.759Z,6.10
2019-05-05T07:15:09.726Z,6.10
2019-05-05T07:16:05.184Z,6.10
2019-05-05T07:17:05.055Z,6.10
2019-05-05T07:18:05.587Z,6.10
2019-05-05T07:19:05.107Z,6.10
2019-05-05T07:20:04.558Z,6.10
2019-05-05T07:21:04.502Z,6.20
2019-05-05T07:22:04.658Z,6.20
2019-05-05T07:23:05.296Z,6.20
2019-05-05T07:24:04.937Z,6.20
2019-05-05T07:25:04.752Z,6.20
2019-05-05T07:26:04.518Z,6.20
2019-05-05T07:27:04.945Z,6.20
2019-05-05T07:28:04.894Z,6.20
2019-05-05T07:29:05.710Z,6.20
2019-05-05T07:30:04.808Z,6.30
2019-05-05T07:31:04.649Z,6.30
2019-05-05T07:32:04.695Z,6.30
2019-05-05T07:33:04.970Z,6.40
2019-05-05T07:34:04.796Z,6.40
2019-05-05T07:35:04.903Z,6.40
2019-05-05T07:36:06.065Z,6.40
2019-05-05T07:37:04.864Z,6.50
2019-05-05T07:38:04.547Z,6.50
2019-05-05T07:39:04.367Z,6.50
2019-05-05T07:40:04.342Z,6.50
2019-05-05T07:41:04.209Z,6.60
2019-05-05T07:42:04.550Z,6.60
2019-05-05T07:43:04.552Z,6.60
2019-05-05T07:44:04.843Z,6.60
2019-05-05T07:45:19.216Z,6.60
2019-05-05T07:46:04.806Z,6.60
2019-05-05T07:47:05.133Z,6.60
2019-05-05T07:48:04.889Z,6.50
2019-05-05T07:49:04.688Z,6.50
2019-05-05T07:50:04.865Z,6.60
2019-05-05T07:51:05.367Z,6.50
2019-05-05T07:52:04.243Z,6.50
2019-05-05T07:53:12.128Z,6.50
2019-05-05T07:54:05.147Z,6.50
2019-05-05T07:55:05.042Z,6.50
2019-05-05T07:56:07.473Z,6.50
2019-05-05T07:57:04.327Z,6.50
2019-05-05T07:58:04.451Z,6.50
2019-05-05T07:59:04.715Z,6.50
2019-05-05T08:00:05.467Z,6.50
2019-05-05T08:01:04.788Z,6.50
2019-05-05T08:02:04.615Z,6.50
2019-05-05T08:03:04.838Z,6.50
2019-05-05T08:04:05.858Z,6.60
2019-05-05T08:05:04.697Z,6.60
2019-05-05T08:06:04.551Z,6.60
2019-05-05T08:07:04.553Z,6.60
2019-05-05T08:08:05.021Z,6.60
2019-05-05T08:09:04.384Z,6.60
2019-05-05T08:10:04.678Z,6.70
2019-05-05T08:11:04.970Z,6.70
2019-05-05T08:12:04.909Z,6.70
2019-05-05T08:13:04.734Z,6.80
2019-05-05T08:14:04.551Z,6.80
2019-05-05T08:15:04.587Z,6.90
2019-05-05T08:16:04.187Z,6.90
2019-05-05T08:17:04.711Z,6.90
2019-05-05T08:18:04.620Z,7.00
2019-05-05T08:19:05.164Z,7.00
2019-05-05T08:20:04.214Z,7.10
2019-05-05T08:21:05.086Z,7.10
2019-05-05T08:22:04.346Z,7.10
2019-05-05T08:23:07.956Z,7.10
2019-05-05T08:24:05.032Z,7.10
2019-05-05T08:25:06.048Z,7.20
2019-05-05T08:26:05.132Z,7.20
2019-05-05T08:27:04.868Z,7.20
2019-05-05T08:28:04.800Z,7.20
2019-05-05T08:29:05.305Z,7.20
2019-05-05T08:30:06.266Z,7.30
2019-05-05T08:31:05.606Z,7.30
2019-05-05T08:32:04.519Z,7.30
2019-05-05T08:33:04.852Z,7.30
2019-05-05T08:34:04.990Z,7.30
2019-05-05T08:35:04.522Z,7.30
2019-05-05T08:36:05.137Z,7.30
2019-05-05T08:37:05.101Z,7.30
2019-05-05T08:38:05.124Z,7.30
2019-05-05T08:39:04.765Z,7.30
2019-05-05T08:40:05.287Z,7.30
2019-05-05T08:41:04.772Z,7.30
2019-05-05T08:42:05.111Z,7.30
2019-05-05T08:43:04.817Z,7.30
2019-05-05T08:44:05.243Z,7.30
2019-05-05T08:45:04.973Z,7.30
2019-05-05T08:46:05.210Z,7.30
2019-05-05T08:47:05.003Z,7.30
2019-05-05T08:48:04.971Z,7.30
2019-05-05T08:49:04.435Z,7.30
2019-05-05T08:50:04.933Z,7.30
2019-05-05T08:51:04.929Z,7.30
2019-05-05T08:52:04.903Z,7.40
2019-05-05T08:53:04.893Z,7.40
2019-05-05T08:54:05.220Z,7.40
2019-05-05T08:55:04.937Z,7.40
2019-05-05T08:56:05.156Z,7.40
2019-05-05T08:57:04.630Z,7.40
2019-05-05T08:58:05.104Z,7.40
2019-05-05T08:59:04.471Z,7.50
2019-05-05T09:00:05.023Z,7.50
2019-05-05T09:01:05.020Z,7.50
2019-05-05T09:02:04.712Z,7.50
2019-05-05T09:03:05.189Z,7.60
2019-05-05T09:04:04.725Z,7.70
2019-05-05T09:05:04.993Z,7.80
2019-05-05T09:06:05.105Z,8.00
2019-05-05T09:07:05.081Z,8.10
2019-05-05T09:08:05.042Z,8.20
2019-05-05T09:09:05.109Z,8.40
2019-05-05T09:10:04.301Z,8.50
2019-05-05T09:11:04.836Z,8.60
2019-05-05T09:12:10.162Z,8.70
2019-05-05T09:13:04.402Z,8.70
2019-05-05T09:14:04.868Z,8.80
2019-05-05T09:15:04.469Z,8.80
2019-05-05T09:16:04.501Z,8.90
2019-05-05T09:17:05.032Z,9.00
2019-05-05T09:18:05.032Z,9.10
2019-05-05T09:19:04.818Z,9.20
2019-05-05T09:20:04.604Z,9.30
2019-05-05T09:21:05.060Z,9.30
2019-05-05T09:22:05.582Z,9.40
2019-05-05T09:23:04.463Z,9.40
2019-05-05T09:24:05.340Z,9.40
2019-05-05T09:25:04.704Z,9.30
2019-05-05T09:26:04.674Z,9.30
2019-05-05T09:27:05.000Z,9.30
2019-05-05T09:28:06.090Z,9.20
2019-05-05T09:29:05.076Z,9.20
2019-05-05T09:30:04.720Z,9.10
2019-05-05T09:31:05.024Z,9.10
2019-05-05T09:32:04.482Z,9.00
2019-05-05T09:33:05.795Z,9.00
2019-05-05T09:34:04.403Z,9.00
2019-05-05T09:35:04.928Z,8.90
2019-05-05T09:36:05.469Z,8.90
2019-05-05T09:37:05.080Z,8.90
2019-05-05T09:38:04.690Z,8.80
2019-05-05T09:39:04.399Z,8.80
2019-05-05T09:40:05.337Z,8.70
2019-05-05T09:41:04.661Z,8.70
2019-05-05T09:42:05.001Z,8.70
2019-05-05T09:43:05.130Z,8.60
2019-05-05T09:44:04.588Z,8.60
2019-05-05T09:45:04.834Z,8.60
2019-05-05T09:46:09.681Z,8.60
2019-05-05T09:47:05.240Z,8.50
2019-05-05T09:48:05.302Z,8.50
2019-05-05T09:49:04.802Z,8.50
2019-05-05T09:50:04.312Z,8.50
2019-05-05T09:51:04.547Z,8.40
2019-05-05T09:52:05.049Z,8.40
2019-05-05T09:53:05.192Z,8.40
2019-05-05T09:54:13.859Z,8.40
2019-05-05T09:55:04.869Z,8.40
2019-05-05T09:56:05.037Z,8.30
2019-05-05T09:57:04.782Z,8.30
2019-05-05T09:58:04.762Z,8.30
2019-05-05T09:59:04.888Z,8.30
2019-05-05T10:00:04.785Z,8.30
2019-05-05T10:01:04.273Z,8.30
2019-05-05T10:02:04.518Z,8.40
2019-05-05T10:03:04.786Z,8.40
2019-05-05T10:04:05.318Z,8.30
2019-05-05T10:05:04.988Z,8.30
2019-05-05T10:06:05.249Z,8.30
2019-05-05T10:07:04.711Z,8.30
2019-05-05T10:08:05.039Z,8.30
2019-05-05T10:09:05.202Z,8.30
2019-05-05T10:10:05.192Z,8.30
2019-05-05T10:11:04.508Z,8.30
2019-05-05T10:12:04.964Z,8.30
2019-05-05T10:13:05.055Z,8.30
2019-05-05T10:14:04.788Z,8.30
2019-05-05T10:15:07.382Z,8.30
2019-05-05T10:16:04.382Z,8.40
2019-05-05T10:17:05.058Z,8.40
2019-05-05T10:18:04.892Z,8.40
2019-05-05T10:19:05.335Z,8.40
2019-05-05T10:20:04.618Z,8.40
2019-05-05T10:21:05.018Z,8.50
2019-05-05T10:22:05.020Z,8.50
2019-05-05T10:23:05.078Z,8.50
2019-05-05T10:24:04.587Z,8.50
2019-05-05T10:25:04.726Z,8.50
2019-05-05T10:26:05.087Z,8.60
2019-05-05T10:27:05.215Z,8.60
2019-05-05T10:28:04.663Z,8.60
2019-05-05T10:29:04.887Z,8.60
2019-05-05T10:30:05.316Z,8.70
2019-05-05T10:31:04.747Z,8.70
2019-05-05T10:32:04.861Z,8.70
2019-05-05T10:33:04.533Z,8.80
2019-05-05T10:34:04.532Z,8.80
2019-05-05T10:35:05.435Z,8.90
2019-05-05T10:36:04.515Z,8.90
2019-05-05T10:37:04.928Z,9.00
2019-05-05T10:38:04.896Z,9.00
2019-05-05T10:39:05.047Z,9.10
2019-05-05T10:40:05.367Z,9.10
2019-05-05T10:41:04.731Z,9.20
2019-05-05T10:42:05.118Z,9.20
2019-05-05T10:43:04.856Z,9.30
2019-05-05T10:44:04.564Z,9.30
2019-05-05T10:45:04.710Z,9.40
2019-05-05T10:46:04.948Z,9.50
2019-05-05T10:47:04.793Z,9.50
2019-05-05T10:48:04.710Z,9.60
2019-05-05T10:49:08.575Z,9.70
2019-05-05T10:50:05.158Z,9.80
2019-05-05T10:51:04.563Z,9.90
2019-05-05T10:52:04.604Z,10.00
2019-05-05T10:53:04.977Z,10.10
2019-05-05T10:54:04.679Z,10.20
2019-05-05T10:55:04.941Z,10.20
2019-05-05T10:56:04.567Z,10.30
2019-05-05T10:57:04.697Z,10.40
2019-05-05T10:58:04.872Z,10.40
2019-05-05T10:59:04.279Z,10.50
2019-05-05T11:00:11.799Z,10.50
2019-05-05T11:01:05.042Z,10.50
2019-05-05T11:02:05.229Z,10.50
2019-05-05T11:03:04.641Z,10.40
2019-05-05T11:04:04.559Z,10.40
2019-05-05T11:05:04.283Z,10.30
2019-05-05T11:06:04.668Z,10.30
2019-05-05T11:07:04.931Z,10.30
2019-05-05T11:08:04.666Z,10.30
2019-05-05T11:09:05.617Z,10.20
2019-05-05T11:10:04.449Z,10.20
2019-05-05T11:11:04.640Z,10.10
2019-05-05T11:12:04.784Z,10.10
2019-05-05T11:13:04.740Z,10.00
2019-05-05T11:14:04.556Z,10.00
2019-05-05T11:15:04.315Z,9.90
2019-05-05T11:16:05.016Z,9.90
2019-05-05T11:17:04.785Z,9.90
2019-05-05T11:18:04.980Z,9.80
2019-05-05T11:19:04.436Z,9.80
2019-05-05T11:20:05.237Z,9.80
2019-05-05T11:21:04.461Z,9.80
2019-05-05T11:22:04.634Z,9.70
2019-05-05T11:23:04.974Z,9.70
2019-05-05T11:24:04.968Z,9.70
2019-05-05T11:25:05.213Z,9.70
2019-05-05T11:26:04.480Z,9.70
2019-05-05T11:27:04.506Z,9.70
2019-05-05T11:28:04.536Z,9.70
2019-05-05T11:29:04.688Z,9.70
2019-05-05T11:30:05.009Z,9.70
2019-05-05T11:31:04.828Z,9.70
2019-05-05T11:32:04.562Z,9.70
2019-05-05T11:33:05.213Z,9.70
2019-05-05T11:34:04.699Z,9.80
2019-05-05T11:35:04.813Z,9.80
2019-05-05T11:36:04.589Z,9.80
2019-05-05T11:37:05.520Z,9.90
2019-05-05T11:38:04.630Z,9.90
2019-05-05T11:39:05.115Z,9.90
2019-05-05T11:40:04.900Z,9.90
2019-05-05T11:41:05.103Z,9.90
2019-05-05T11:42:04.616Z,10.00
2019-05-05T11:43:04.782Z,10.00
2019-05-05T11:44:04.666Z,10.00
2019-05-05T11:45:04.714Z,10.00
2019-05-05T11:46:04.294Z,10.00
2019-05-05T11:47:04.807Z,10.00
2019-05-05T11:48:06.895Z,10.00
2019-05-05T11:49:04.967Z,10.10
2019-05-05T11:50:04.780Z,10.10
2019-05-05T11:51:05.252Z,10.10
2019-05-05T11:52:04.732Z,10.10
2019-05-05T11:53:05.240Z,10.10
2019-05-05T11:54:04.720Z,10.20
2019-05-05T11:55:11.334Z,10.20
2019-05-05T11:56:05.119Z,10.20
2019-05-05T11:57:04.484Z,10.20
2019-05-05T11:58:04.293Z,10.20
2019-05-05T11:59:04.424Z,10.20
2019-05-05T12:00:04.360Z,10.30
2019-05-05T12:01:04.822Z,10.30
2019-05-05T12:02:04.156Z,10.30
2019-05-05T12:03:04.280Z,10.30
2019-05-05T12:04:04.381Z,10.30
2019-05-05T12:05:04.605Z,10.30
2019-05-05T12:06:04.489Z,10.30
2019-05-05T12:07:04.475Z,10.30
2019-05-05T12:08:05.276Z,10.30
2019-05-05T12:09:04.977Z,10.30
2019-05-05T12:10:05.058Z,10.30
2019-05-05T12:11:04.743Z,10.30
2019-05-05T12:12:04.454Z,10.40
2019-05-05T12:13:04.853Z,10.40
2019-05-05T12:14:04.820Z,10.40
2019-05-05T12:15:04.908Z,10.40
2019-05-05T12:16:04.951Z,10.40
2019-05-05T12:17:04.681Z,10.40
2019-05-05T12:18:04.548Z,10.50
2019-05-05T12:19:04.532Z,10.50
2019-05-05T12:20:04.764Z,10.50
2019-05-05T12:21:05.249Z,10.50
2019-05-05T12:22:05.058Z,10.60
2019-05-05T12:23:04.677Z,10.60
2019-05-05T12:24:06.046Z,10.60
2019-05-05T12:25:04.406Z,10.60
2019-05-05T12:26:04.722Z,10.70
2019-05-05T12:27:04.486Z,10.70
2019-05-05T12:28:04.579Z,10.70
2019-05-05T12:29:04.781Z,10.70
2019-05-05T12:30:04.889Z,10.70
2019-05-05T12:31:04.777Z,10.70
2019-05-05T12:32:04.380Z,10.80
2019-05-05T12:33:04.808Z,10.70
2019-05-05T12:34:04.556Z,10.70
2019-05-05T12:35:04.479Z,10.70
2019-05-05T12:36:04.837Z,10.70
2019-05-05T12:37:05.351Z,10.60
2019-05-05T12:38:04.949Z,10.60
2019-05-05T12:39:04.464Z,10.60
2019-05-05T12:40:04.481Z,10.60
2019-05-05T12:41:04.514Z,10.50
2019-05-05T12:42:04.903Z,10.50
2019-05-05T12:43:04.941Z,10.40
2019-05-05T12:44:05.032Z,10.40
2019-05-05T12:45:05.166Z,10.30
2019-05-05T12:46:05.174Z,10.30
2019-05-05T12:47:04.322Z,10.30
2019-05-05T12:48:04.346Z,10.20
2019-05-05T12:49:05.019Z,10.20
2019-05-05T12:50:05.145Z,10.20
2019-05-05T12:51:05.046Z,10.20
2019-05-05T12:52:04.714Z,10.20
2019-05-05T12:53:05.088Z,10.20
2019-05-05T12:54:07.445Z,10.20
2019-05-05T12:55:05.225Z,10.20
2019-05-05T12:56:04.193Z,10.20
2019-05-05T12:57:04.547Z,10.20
2019-05-05T12:58:04.279Z,10.20
2019-05-05T12:59:04.382Z,10.20
2019-05-05T13:00:04.338Z,10.10
2019-05-05T13:01:04.401Z,10.10
2019-05-05T13:02:04.465Z,10.10
2019-05-05T13:03:04.742Z,10.10
2019-05-05T13:04:05.096Z,10.10
2019-05-05T13:05:05.203Z,10.20
2019-05-05T13:06:04.280Z,10.20
2019-05-05T13:07:04.995Z,10.20
2019-05-05T13:08:04.698Z,10.20
2019-05-05T13:09:04.956Z,10.20
2019-05-05T13:10:05.166Z,10.30
2019-05-05T13:11:04.168Z,10.20
2019-05-05T13:12:04.637Z,10.30
2019-05-05T13:13:04.785Z,10.20
2019-05-05T13:14:04.962Z,10.30